sensor_id;sensor_type;location;lat;lon;timestamp;temperature;humidity
5174;DHT22;2606;50.934;6.934;2022-07-29T00:00:12;21.70;68.00
5174;DHT22;2606;50.934;6.934;2022-07-29T00:02:38;21.70;68.80
5174;DHT22;2606;50.934;6.934;2022-07-29T00:05:04;21.60;69.20
5174;DHT22;2606;50.934;6.934;2022-07-29T00:07:30;21.60;69.70
5174;DHT22;2606;50.934;6.934;2022-07-29T00:09:56;21.60;70.00
5174;DHT22;2606;50.934;6.934;2022-07-29T00:12:23;21.50;70.20
5174;DHT22;2606;50.934;6.934;2022-07-29T00:14:50;21.40;70.30
5174;DHT22;2606;50.934;6.934;2022-07-29T00:17:15;21.40;70.60
5174;DHT22;2606;50.934;6.934;2022-07-29T00:19:41;21.40;70.90
5174;DHT22;2606;50.934;6.934;2022-07-29T00:22:06;21.40;71.40
5174;DHT22;2606;50.934;6.934;2022-07-29T00:24:32;21.40;71.70
5174;DHT22;2606;50.934;6.934;2022-07-29T00:26:58;21.30;72.70
5174;DHT22;2606;50.934;6.934;2022-07-29T00:29:23;21.30;72.20
5174;DHT22;2606;50.934;6.934;2022-07-29T00:31:49;21.30;72.70
5174;DHT22;2606;50.934;6.934;2022-07-29T00:34:14;21.30;72.90
5174;DHT22;2606;50.934;6.934;2022-07-29T00:36:59;21.30;73.30
5174;DHT22;2606;50.934;6.934;2022-07-29T00:39:24;21.30;74.30
5174;DHT22;2606;50.934;6.934;2022-07-29T00:41:50;21.30;73.90
5174;DHT22;2606;50.934;6.934;2022-07-29T00:44:16;21.30;74.30
5174;DHT22;2606;50.934;6.934;2022-07-29T00:46:41;21.20;74.40
5174;DHT22;2606;50.934;6.934;2022-07-29T00:49:07;21.20;74.80
5174;DHT22;2606;50.934;6.934;2022-07-29T00:51:37;21.20;74.90
5174;DHT22;2606;50.934;6.934;2022-07-29T00:54:04;21.20;75.10
5174;DHT22;2606;50.934;6.934;2022-07-29T00:56:33;21.20;75.20
5174;DHT22;2606;50.934;6.934;2022-07-29T00:58:59;21.10;74.90
5174;DHT22;2606;50.934;6.934;2022-07-29T01:01:25;21.20;74.90
5174;DHT22;2606;50.934;6.934;2022-07-29T01:03:51;21.20;74.80
5174;DHT22;2606;50.934;6.934;2022-07-29T01:06:18;21.20;74.60
5174;DHT22;2606;50.934;6.934;2022-07-29T01:08:47;21.20;74.50
5174;DHT22;2606;50.934;6.934;2022-07-29T01:11:15;21.20;74.90
5174;DHT22;2606;50.934;6.934;2022-07-29T01:13:42;21.20;74.00
5174;DHT22;2606;50.934;6.934;2022-07-29T01:16:30;21.20;74.00
5174;DHT22;2606;50.934;6.934;2022-07-29T01:19:03;21.20;74.00
5174;DHT22;2606;50.934;6.934;2022-07-29T01:21:42;21.30;74.00
5174;DHT22;2606;50.934;6.934;2022-07-29T01:24:28;21.30;74.00
5174;DHT22;2606;50.934;6.934;2022-07-29T01:29:39;21.30;74.40
5174;DHT22;2606;50.934;6.934;2022-07-29T01:32:15;21.30;74.70
5174;DHT22;2606;50.934;6.934;2022-07-29T01:35:02;21.30;75.00
5174;DHT22;2606;50.934;6.934;2022-07-29T01:39:58;21.30;75.70
5174;DHT22;2606;50.934;6.934;2022-07-29T01:42:45;21.30;75.70
5174;DHT22;2606;50.934;6.934;2022-07-29T01:45:41;21.30;75.80
5174;DHT22;2606;50.934;6.934;2022-07-29T01:48:24;21.30;75.50
5174;DHT22;2606;50.934;6.934;2022-07-29T01:51:05;21.30;75.40
5174;DHT22;2606;50.934;6.934;2022-07-29T01:53:38;21.30;75.10
5174;DHT22;2606;50.934;6.934;2022-07-29T01:56:08;21.30;74.80
5174;DHT22;2606;50.934;6.934;2022-07-29T01:58:35;21.30;74.60
5174;DHT22;2606;50.934;6.934;2022-07-29T02:01:02;21.30;76.10
5174;DHT22;2606;50.934;6.934;2022-07-29T02:03:30;21.20;77.30
5174;DHT22;2606;50.934;6.934;2022-07-29T02:05:58;21.20;78.40
5174;DHT22;2606;50.934;6.934;2022-07-29T02:08:26;21.20;79.30
5174;DHT22;2606;50.934;6.934;2022-07-29T02:10:52;21.10;79.80
5174;DHT22;2606;50.934;6.934;2022-07-29T02:13:20;21.10;81.10
5174;DHT22;2606;50.934;6.934;2022-07-29T02:15:48;21.10;82.10
5174;DHT22;2606;50.934;6.934;2022-07-29T02:18:18;21.00;82.50
5174;DHT22;2606;50.934;6.934;2022-07-29T02:20:48;21.00;82.80
5174;DHT22;2606;50.934;6.934;2022-07-29T02:23:20;21.00;82.80
5174;DHT22;2606;50.934;6.934;2022-07-29T02:25:49;21.00;82.50
5174;DHT22;2606;50.934;6.934;2022-07-29T02:28:16;21.00;82.00
5174;DHT22;2606;50.934;6.934;2022-07-29T02:30:43;20.90;81.80
5174;DHT22;2606;50.934;6.934;2022-07-29T02:33:12;20.90;82.30
5174;DHT22;2606;50.934;6.934;2022-07-29T02:35:40;20.90;82.70
5174;DHT22;2606;50.934;6.934;2022-07-29T02:38:06;20.90;82.70
5174;DHT22;2606;50.934;6.934;2022-07-29T02:40:53;20.80;83.00
5174;DHT22;2606;50.934;6.934;2022-07-29T02:43:21;20.80;83.60
5174;DHT22;2606;50.934;6.934;2022-07-29T02:45:51;20.70;84.20
5174;DHT22;2606;50.934;6.934;2022-07-29T02:48:22;20.70;85.10
5174;DHT22;2606;50.934;6.934;2022-07-29T02:51:01;20.60;86.80
5174;DHT22;2606;50.934;6.934;2022-07-29T02:53:33;20.60;87.40
5174;DHT22;2606;50.934;6.934;2022-07-29T02:55:59;20.60;89.10
5174;DHT22;2606;50.934;6.934;2022-07-29T02:58:30;20.50;90.90
5174;DHT22;2606;50.934;6.934;2022-07-29T03:00:58;20.50;91.90
5174;DHT22;2606;50.934;6.934;2022-07-29T03:03:31;20.40;92.30
5174;DHT22;2606;50.934;6.934;2022-07-29T03:05:59;20.40;91.90
5174;DHT22;2606;50.934;6.934;2022-07-29T03:08:27;20.30;91.70
5174;DHT22;2606;50.934;6.934;2022-07-29T03:10:53;20.20;91.70
5174;DHT22;2606;50.934;6.934;2022-07-29T03:13:20;20.10;92.10
5174;DHT22;2606;50.934;6.934;2022-07-29T03:15:47;20.10;92.50
5174;DHT22;2606;50.934;6.934;2022-07-29T03:18:13;20.00;92.60
5174;DHT22;2606;50.934;6.934;2022-07-29T03:20:39;19.90;92.60
5174;DHT22;2606;50.934;6.934;2022-07-29T03:23:04;19.90;92.90
5174;DHT22;2606;50.934;6.934;2022-07-29T03:25:30;19.80;93.00
5174;DHT22;2606;50.934;6.934;2022-07-29T03:27:56;19.80;93.40
5174;DHT22;2606;50.934;6.934;2022-07-29T03:30:22;19.70;93.60
5174;DHT22;2606;50.934;6.934;2022-07-29T03:32:49;19.70;93.70
5174;DHT22;2606;50.934;6.934;2022-07-29T03:35:15;19.60;93.90
5174;DHT22;2606;50.934;6.934;2022-07-29T03:37:45;19.60;94.00
5174;DHT22;2606;50.934;6.934;2022-07-29T03:40:18;19.60;94.00
5174;DHT22;2606;50.934;6.934;2022-07-29T03:42:45;19.60;93.90
5174;DHT22;2606;50.934;6.934;2022-07-29T03:45:15;19.60;93.80
5174;DHT22;2606;50.934;6.934;2022-07-29T03:47:46;19.60;93.70
5174;DHT22;2606;50.934;6.934;2022-07-29T03:50:14;19.60;93.70
5174;DHT22;2606;50.934;6.934;2022-07-29T03:52:40;19.60;93.70
5174;DHT22;2606;50.934;6.934;2022-07-29T03:55:07;19.50;93.50
5174;DHT22;2606;50.934;6.934;2022-07-29T03:57:34;19.50;93.30
5174;DHT22;2606;50.934;6.934;2022-07-29T04:00:02;19.50;93.30
5174;DHT22;2606;50.934;6.934;2022-07-29T04:02:28;19.50;93.60
5174;DHT22;2606;50.934;6.934;2022-07-29T04:04:54;19.50;93.70
5174;DHT22;2606;50.934;6.934;2022-07-29T04:07:20;19.50;93.40
5174;DHT22;2606;50.934;6.934;2022-07-29T04:09:46;19.40;93.40
5174;DHT22;2606;50.934;6.934;2022-07-29T04:12:11;19.50;93.20
5174;DHT22;2606;50.934;6.934;2022-07-29T04:14:37;19.50;93.30
5174;DHT22;2606;50.934;6.934;2022-07-29T04:17:03;19.40;93.30
5174;DHT22;2606;50.934;6.934;2022-07-29T04:19:28;19.40;93.50
5174;DHT22;2606;50.934;6.934;2022-07-29T04:21:54;19.40;93.30
5174;DHT22;2606;50.934;6.934;2022-07-29T04:24:20;19.40;93.30
5174;DHT22;2606;50.934;6.934;2022-07-29T04:26:46;19.40;93.60
5174;DHT22;2606;50.934;6.934;2022-07-29T04:29:12;19.40;93.60
5174;DHT22;2606;50.934;6.934;2022-07-29T04:31:42;19.50;93.60
5174;DHT22;2606;50.934;6.934;2022-07-29T04:34:08;19.50;93.30
5174;DHT22;2606;50.934;6.934;2022-07-29T04:36:34;19.40;93.00
5174;DHT22;2606;50.934;6.934;2022-07-29T04:39:00;19.50;93.10
5174;DHT22;2606;50.934;6.934;2022-07-29T04:41:29;19.40;93.00
5174;DHT22;2606;50.934;6.934;2022-07-29T04:43:55;19.40;93.10
5174;DHT22;2606;50.934;6.934;2022-07-29T04:46:21;19.40;93.00
5174;DHT22;2606;50.934;6.934;2022-07-29T04:48:47;19.40;93.10
5174;DHT22;2606;50.934;6.934;2022-07-29T04:51:15;19.40;93.30
5174;DHT22;2606;50.934;6.934;2022-07-29T04:53:40;19.40;93.00
5174;DHT22;2606;50.934;6.934;2022-07-29T04:56:06;19.40;93.00
5174;DHT22;2606;50.934;6.934;2022-07-29T04:58:34;19.40;93.10
5174;DHT22;2606;50.934;6.934;2022-07-29T05:01:00;19.40;92.90
5174;DHT22;2606;50.934;6.934;2022-07-29T05:03:26;19.40;92.80
5174;DHT22;2606;50.934;6.934;2022-07-29T05:05:51;19.40;92.90
5174;DHT22;2606;50.934;6.934;2022-07-29T05:08:17;19.50;93.00
5174;DHT22;2606;50.934;6.934;2022-07-29T05:10:42;19.50;92.80
5174;DHT22;2606;50.934;6.934;2022-07-29T05:13:08;19.50;92.60
5174;DHT22;2606;50.934;6.934;2022-07-29T05:15:34;19.50;93.00
5174;DHT22;2606;50.934;6.934;2022-07-29T05:18:00;19.50;92.50
5174;DHT22;2606;50.934;6.934;2022-07-29T05:20:26;19.50;92.50
5174;DHT22;2606;50.934;6.934;2022-07-29T05:22:57;19.50;92.50
5174;DHT22;2606;50.934;6.934;2022-07-29T05:25:25;19.50;92.50
5174;DHT22;2606;50.934;6.934;2022-07-29T05:27:52;19.50;92.40
5174;DHT22;2606;50.934;6.934;2022-07-29T05:30:18;19.50;92.30
5174;DHT22;2606;50.934;6.934;2022-07-29T05:32:43;19.50;92.40
5174;DHT22;2606;50.934;6.934;2022-07-29T05:35:09;19.60;92.40
5174;DHT22;2606;50.934;6.934;2022-07-29T05:37:35;19.60;92.40
5174;DHT22;2606;50.934;6.934;2022-07-29T05:40:01;19.60;92.40
5174;DHT22;2606;50.934;6.934;2022-07-29T05:42:27;19.60;92.20
5174;DHT22;2606;50.934;6.934;2022-07-29T05:44:53;19.60;92.20
5174;DHT22;2606;50.934;6.934;2022-07-29T05:47:19;19.60;92.20
5174;DHT22;2606;50.934;6.934;2022-07-29T05:49:44;19.70;92.10
5174;DHT22;2606;50.934;6.934;2022-07-29T05:52:10;19.70;92.50
5174;DHT22;2606;50.934;6.934;2022-07-29T05:54:36;19.70;92.20
5174;DHT22;2606;50.934;6.934;2022-07-29T05:57:03;19.70;92.10
5174;DHT22;2606;50.934;6.934;2022-07-29T05:59:28;19.70;91.90
5174;DHT22;2606;50.934;6.934;2022-07-29T06:01:54;19.80;92.00
5174;DHT22;2606;50.934;6.934;2022-07-29T06:04:20;19.80;91.90
5174;DHT22;2606;50.934;6.934;2022-07-29T06:06:45;19.80;91.70
5174;DHT22;2606;50.934;6.934;2022-07-29T06:09:11;19.90;91.70
5174;DHT22;2606;50.934;6.934;2022-07-29T06:11:37;19.90;91.60
5174;DHT22;2606;50.934;6.934;2022-07-29T06:14:02;19.90;91.40
5174;DHT22;2606;50.934;6.934;2022-07-29T06:16:28;19.90;91.30
5174;DHT22;2606;50.934;6.934;2022-07-29T06:18:54;19.90;91.20
5174;DHT22;2606;50.934;6.934;2022-07-29T06:21:20;20.00;91.20
5174;DHT22;2606;50.934;6.934;2022-07-29T06:23:46;20.00;91.50
5174;DHT22;2606;50.934;6.934;2022-07-29T06:26:12;20.00;91.70
5174;DHT22;2606;50.934;6.934;2022-07-29T06:28:37;20.00;91.70
5174;DHT22;2606;50.934;6.934;2022-07-29T06:31:03;19.90;91.90
5174;DHT22;2606;50.934;6.934;2022-07-29T06:33:28;19.90;92.00
5174;DHT22;2606;50.934;6.934;2022-07-29T06:35:54;19.90;92.10
5174;DHT22;2606;50.934;6.934;2022-07-29T06:38:20;19.90;92.30
5174;DHT22;2606;50.934;6.934;2022-07-29T06:40:46;19.90;92.10
5174;DHT22;2606;50.934;6.934;2022-07-29T06:43:47;19.90;92.10
5174;DHT22;2606;50.934;6.934;2022-07-29T06:46:16;19.90;92.00
5174;DHT22;2606;50.934;6.934;2022-07-29T06:48:46;19.90;91.90
5174;DHT22;2606;50.934;6.934;2022-07-29T06:51:12;19.90;92.00
5174;DHT22;2606;50.934;6.934;2022-07-29T06:53:40;19.90;92.10
5174;DHT22;2606;50.934;6.934;2022-07-29T06:56:06;20.00;92.30
5174;DHT22;2606;50.934;6.934;2022-07-29T06:58:37;20.00;92.30
5174;DHT22;2606;50.934;6.934;2022-07-29T07:01:05;20.00;93.10
5174;DHT22;2606;50.934;6.934;2022-07-29T07:03:31;20.00;93.40
5174;DHT22;2606;50.934;6.934;2022-07-29T07:05:56;20.10;95.10
5174;DHT22;2606;50.934;6.934;2022-07-29T07:08:22;20.10;95.60
5174;DHT22;2606;50.934;6.934;2022-07-29T07:10:49;20.10;96.70
5174;DHT22;2606;50.934;6.934;2022-07-29T07:13:15;20.10;97.80
5174;DHT22;2606;50.934;6.934;2022-07-29T07:15:43;20.10;98.90
5174;DHT22;2606;50.934;6.934;2022-07-29T07:18:09;20.10;98.90
5174;DHT22;2606;50.934;6.934;2022-07-29T07:20:35;20.10;99.00
5174;DHT22;2606;50.934;6.934;2022-07-29T07:23:01;20.10;99.40
5174;DHT22;2606;50.934;6.934;2022-07-29T07:25:27;20.10;99.90
5174;DHT22;2606;50.934;6.934;2022-07-29T07:27:52;20.20;99.90
5174;DHT22;2606;50.934;6.934;2022-07-29T07:30:18;20.20;99.70
5174;DHT22;2606;50.934;6.934;2022-07-29T07:32:43;20.20;99.90
5174;DHT22;2606;50.934;6.934;2022-07-29T07:35:10;20.20;99.90
5174;DHT22;2606;50.934;6.934;2022-07-29T07:37:36;20.20;99.90
5174;DHT22;2606;50.934;6.934;2022-07-29T07:40:02;20.10;99.90
5174;DHT22;2606;50.934;6.934;2022-07-29T07:42:29;20.10;99.90
5174;DHT22;2606;50.934;6.934;2022-07-29T07:44:55;20.10;99.90
5174;DHT22;2606;50.934;6.934;2022-07-29T07:47:21;20.10;99.90
5174;DHT22;2606;50.934;6.934;2022-07-29T07:49:47;20.00;99.90
5174;DHT22;2606;50.934;6.934;2022-07-29T07:52:13;19.90;99.90
5174;DHT22;2606;50.934;6.934;2022-07-29T07:54:39;19.90;99.90
5174;DHT22;2606;50.934;6.934;2022-07-29T07:57:04;19.80;99.90
5174;DHT22;2606;50.934;6.934;2022-07-29T07:59:30;19.70;99.90
5174;DHT22;2606;50.934;6.934;2022-07-29T08:01:55;19.70;99.90
5174;DHT22;2606;50.934;6.934;2022-07-29T08:04:21;19.70;99.90
5174;DHT22;2606;50.934;6.934;2022-07-29T08:06:47;19.70;99.90
5174;DHT22;2606;50.934;6.934;2022-07-29T08:09:15;19.60;99.90
5174;DHT22;2606;50.934;6.934;2022-07-29T08:11:41;19.60;99.90
5174;DHT22;2606;50.934;6.934;2022-07-29T08:14:07;19.50;99.90
5174;DHT22;2606;50.934;6.934;2022-07-29T08:16:32;19.60;99.90
5174;DHT22;2606;50.934;6.934;2022-07-29T08:18:58;19.60;99.90
5174;DHT22;2606;50.934;6.934;2022-07-29T08:21:24;19.60;99.90
5174;DHT22;2606;50.934;6.934;2022-07-29T08:23:50;19.60;99.90
5174;DHT22;2606;50.934;6.934;2022-07-29T08:26:19;19.70;99.90
5174;DHT22;2606;50.934;6.934;2022-07-29T08:28:46;19.70;99.90
5174;DHT22;2606;50.934;6.934;2022-07-29T08:31:14;19.70;99.90
5174;DHT22;2606;50.934;6.934;2022-07-29T08:33:41;19.80;99.90
5174;DHT22;2606;50.934;6.934;2022-07-29T08:36:06;19.80;99.90
5174;DHT22;2606;50.934;6.934;2022-07-29T08:38:32;19.90;99.90
5174;DHT22;2606;50.934;6.934;2022-07-29T08:41:00;19.90;99.90
5174;DHT22;2606;50.934;6.934;2022-07-29T08:43:27;19.90;99.90
5174;DHT22;2606;50.934;6.934;2022-07-29T08:45:53;20.00;99.90
5174;DHT22;2606;50.934;6.934;2022-07-29T08:48:21;20.00;99.90
5174;DHT22;2606;50.934;6.934;2022-07-29T08:50:49;20.10;99.90
5174;DHT22;2606;50.934;6.934;2022-07-29T08:53:18;20.10;99.90
5174;DHT22;2606;50.934;6.934;2022-07-29T08:55:48;20.20;99.90
5174;DHT22;2606;50.934;6.934;2022-07-29T08:58:14;20.30;99.90
5174;DHT22;2606;50.934;6.934;2022-07-29T09:00:50;20.30;99.90
5174;DHT22;2606;50.934;6.934;2022-07-29T09:03:18;20.30;99.90
5174;DHT22;2606;50.934;6.934;2022-07-29T09:05:48;20.30;99.90
5174;DHT22;2606;50.934;6.934;2022-07-29T09:08:15;20.30;99.90
5174;DHT22;2606;50.934;6.934;2022-07-29T09:10:40;20.30;99.90
5174;DHT22;2606;50.934;6.934;2022-07-29T09:13:06;20.30;99.90
5174;DHT22;2606;50.934;6.934;2022-07-29T09:15:32;20.30;99.90
5174;DHT22;2606;50.934;6.934;2022-07-29T09:17:57;20.20;99.90
5174;DHT22;2606;50.934;6.934;2022-07-29T09:20:27;20.10;99.90
5174;DHT22;2606;50.934;6.934;2022-07-29T09:23:13;20.20;99.90
5174;DHT22;2606;50.934;6.934;2022-07-29T09:25:40;20.20;99.90
5174;DHT22;2606;50.934;6.934;2022-07-29T09:28:16;20.20;99.90
5174;DHT22;2606;50.934;6.934;2022-07-29T09:30:51;20.20;99.90
5174;DHT22;2606;50.934;6.934;2022-07-29T09:33:18;20.30;99.90
5174;DHT22;2606;50.934;6.934;2022-07-29T09:35:44;20.40;99.90
5174;DHT22;2606;50.934;6.934;2022-07-29T09:38:11;20.40;99.90
5174;DHT22;2606;50.934;6.934;2022-07-29T09:40:37;20.40;99.90
5174;DHT22;2606;50.934;6.934;2022-07-29T09:43:12;20.50;99.90
5174;DHT22;2606;50.934;6.934;2022-07-29T09:45:39;20.60;99.90
5174;DHT22;2606;50.934;6.934;2022-07-29T09:48:24;20.70;99.90
5174;DHT22;2606;50.934;6.934;2022-07-29T09:50:51;20.80;99.90
5174;DHT22;2606;50.934;6.934;2022-07-29T09:53:37;20.80;99.90
5174;DHT22;2606;50.934;6.934;2022-07-29T09:56:03;21.00;99.80
5174;DHT22;2606;50.934;6.934;2022-07-29T09:58:30;21.00;99.50
5174;DHT22;2606;50.934;6.934;2022-07-29T10:00:56;21.10;98.90
5174;DHT22;2606;50.934;6.934;2022-07-29T10:03:22;21.20;99.00
5174;DHT22;2606;50.934;6.934;2022-07-29T10:06:07;21.30;98.60
5174;DHT22;2606;50.934;6.934;2022-07-29T10:08:34;21.50;98.50
5174;DHT22;2606;50.934;6.934;2022-07-29T10:13:39;21.60;97.70
5174;DHT22;2606;50.934;6.934;2022-07-29T10:16:06;21.70;98.00
5174;DHT22;2606;50.934;6.934;2022-07-29T10:18:32;21.70;97.30
5174;DHT22;2606;50.934;6.934;2022-07-29T10:20:58;21.80;97.30
5174;DHT22;2606;50.934;6.934;2022-07-29T10:23:27;21.90;96.90
5174;DHT22;2606;50.934;6.934;2022-07-29T10:25:53;22.00;96.70
5174;DHT22;2606;50.934;6.934;2022-07-29T10:28:19;22.20;96.00
5174;DHT22;2606;50.934;6.934;2022-07-29T10:30:45;22.30;95.70
5174;DHT22;2606;50.934;6.934;2022-07-29T10:36:32;22.50;95.20
5174;DHT22;2606;50.934;6.934;2022-07-29T10:42:18;23.00;94.60
5174;DHT22;2606;50.934;6.934;2022-07-29T10:44:46;23.30;94.50
5174;DHT22;2606;50.934;6.934;2022-07-29T10:47:25;23.80;93.30
5174;DHT22;2606;50.934;6.934;2022-07-29T10:50:02;24.00;92.70
5174;DHT22;2606;50.934;6.934;2022-07-29T10:55:37;24.40;92.10
5174;DHT22;2606;50.934;6.934;2022-07-29T10:58:21;24.50;91.80
5174;DHT22;2606;50.934;6.934;2022-07-29T11:00:50;24.70;91.00
5174;DHT22;2606;50.934;6.934;2022-07-29T11:06:03;25.20;89.00
5174;DHT22;2606;50.934;6.934;2022-07-29T11:08:29;25.30;88.20
5174;DHT22;2606;50.934;6.934;2022-07-29T11:13:52;26.00;81.80
5174;DHT22;2606;50.934;6.934;2022-07-29T11:16:21;26.00;81.70
5174;DHT22;2606;50.934;6.934;2022-07-29T11:19:23;26.20;80.00
5174;DHT22;2606;50.934;6.934;2022-07-29T11:21:49;26.30;79.80
5174;DHT22;2606;50.934;6.934;2022-07-29T11:24:27;26.50;78.20
5174;DHT22;2606;50.934;6.934;2022-07-29T11:29:40;27.20;75.40
5174;DHT22;2606;50.934;6.934;2022-07-29T11:32:13;27.60;73.30
5174;DHT22;2606;50.934;6.934;2022-07-29T11:34:41;28.00;70.00
5174;DHT22;2606;50.934;6.934;2022-07-29T11:39:36;28.50;68.00
5174;DHT22;2606;50.934;6.934;2022-07-29T11:44:57;28.90;65.00
5174;DHT22;2606;50.934;6.934;2022-07-29T11:47:23;29.20;63.90
5174;DHT22;2606;50.934;6.934;2022-07-29T11:49:50;29.40;60.90
5174;DHT22;2606;50.934;6.934;2022-07-29T11:52:19;29.60;60.40
5174;DHT22;2606;50.934;6.934;2022-07-29T11:54:47;29.60;60.80
5174;DHT22;2606;50.934;6.934;2022-07-29T11:57:14;29.70;61.40
5174;DHT22;2606;50.934;6.934;2022-07-29T11:59:43;29.80;60.00
5174;DHT22;2606;50.934;6.934;2022-07-29T12:02:08;29.80;58.50
5174;DHT22;2606;50.934;6.934;2022-07-29T12:04:55;29.70;57.60
5174;DHT22;2606;50.934;6.934;2022-07-29T12:07:31;29.50;58.70
5174;DHT22;2606;50.934;6.934;2022-07-29T12:09:58;29.50;59.20
5174;DHT22;2606;50.934;6.934;2022-07-29T12:12:24;29.60;58.90
5174;DHT22;2606;50.934;6.934;2022-07-29T12:14:50;29.60;58.70
5174;DHT22;2606;50.934;6.934;2022-07-29T12:17:29;29.50;58.90
5174;DHT22;2606;50.934;6.934;2022-07-29T12:19:55;29.40;58.30
5174;DHT22;2606;50.934;6.934;2022-07-29T12:22:35;29.30;59.00
5174;DHT22;2606;50.934;6.934;2022-07-29T12:27:36;28.70;59.90
5174;DHT22;2606;50.934;6.934;2022-07-29T12:30:06;28.70;59.80
5174;DHT22;2606;50.934;6.934;2022-07-29T12:32:40;28.70;59.70
5174;DHT22;2606;50.934;6.934;2022-07-29T12:35:08;28.70;58.60
5174;DHT22;2606;50.934;6.934;2022-07-29T12:37:35;28.70;58.70
5174;DHT22;2606;50.934;6.934;2022-07-29T12:40:03;28.80;58.40
5174;DHT22;2606;50.934;6.934;2022-07-29T12:42:29;28.90;58.70
5174;DHT22;2606;50.934;6.934;2022-07-29T12:44:55;29.10;57.70
5174;DHT22;2606;50.934;6.934;2022-07-29T12:47:21;29.30;56.60
5174;DHT22;2606;50.934;6.934;2022-07-29T12:49:48;29.50;56.30
5174;DHT22;2606;50.934;6.934;2022-07-29T12:52:31;29.70;55.20
5174;DHT22;2606;50.934;6.934;2022-07-29T12:54:57;29.90;54.40
5174;DHT22;2606;50.934;6.934;2022-07-29T12:57:23;29.90;53.90
5174;DHT22;2606;50.934;6.934;2022-07-29T13:00:07;30.10;53.00
5174;DHT22;2606;50.934;6.934;2022-07-29T13:02:35;30.20;52.70
5174;DHT22;2606;50.934;6.934;2022-07-29T13:05:01;30.20;52.50
5174;DHT22;2606;50.934;6.934;2022-07-29T13:07:29;30.30;53.30
5174;DHT22;2606;50.934;6.934;2022-07-29T13:12:37;30.70;52.30
5174;DHT22;2606;50.934;6.934;2022-07-29T13:15:13;30.80;51.10
5174;DHT22;2606;50.934;6.934;2022-07-29T13:17:43;30.90;50.80
5174;DHT22;2606;50.934;6.934;2022-07-29T13:20:10;31.10;50.10
5174;DHT22;2606;50.934;6.934;2022-07-29T13:22:41;31.30;50.30
5174;DHT22;2606;50.934;6.934;2022-07-29T13:25:09;31.30;49.90
5174;DHT22;2606;50.934;6.934;2022-07-29T13:27:36;31.50;49.50
5174;DHT22;2606;50.934;6.934;2022-07-29T13:30:05;31.50;49.30
5174;DHT22;2606;50.934;6.934;2022-07-29T13:32:32;31.70;49.20
5174;DHT22;2606;50.934;6.934;2022-07-29T13:35:01;31.90;49.60
5174;DHT22;2606;50.934;6.934;2022-07-29T13:37:28;31.80;50.70
5174;DHT22;2606;50.934;6.934;2022-07-29T13:39:57;31.80;51.10
5174;DHT22;2606;50.934;6.934;2022-07-29T13:42:24;31.80;51.50
5174;DHT22;2606;50.934;6.934;2022-07-29T13:44:51;32.00;51.60
5174;DHT22;2606;50.934;6.934;2022-07-29T13:47:18;32.20;51.20
5174;DHT22;2606;50.934;6.934;2022-07-29T13:49:44;32.40;49.80
5174;DHT22;2606;50.934;6.934;2022-07-29T13:52:09;32.40;49.20
5174;DHT22;2606;50.934;6.934;2022-07-29T13:54:35;32.50;49.30
5174;DHT22;2606;50.934;6.934;2022-07-29T13:57:03;32.40;49.30
5174;DHT22;2606;50.934;6.934;2022-07-29T13:59:29;32.40;48.90
5174;DHT22;2606;50.934;6.934;2022-07-29T14:01:54;32.60;48.90
5174;DHT22;2606;50.934;6.934;2022-07-29T14:04:20;32.50;48.60
5174;DHT22;2606;50.934;6.934;2022-07-29T14:06:51;32.70;48.70
5174;DHT22;2606;50.934;6.934;2022-07-29T14:09:16;32.70;47.60
5174;DHT22;2606;50.934;6.934;2022-07-29T14:11:42;32.50;47.90
5174;DHT22;2606;50.934;6.934;2022-07-29T14:14:07;32.60;48.00
5174;DHT22;2606;50.934;6.934;2022-07-29T14:16:33;32.70;47.90
5174;DHT22;2606;50.934;6.934;2022-07-29T14:18:59;32.50;46.80
5174;DHT22;2606;50.934;6.934;2022-07-29T14:21:25;32.30;46.90
5174;DHT22;2606;50.934;6.934;2022-07-29T14:23:50;32.30;46.80
5174;DHT22;2606;50.934;6.934;2022-07-29T14:26:17;32.10;46.40
5174;DHT22;2606;50.934;6.934;2022-07-29T14:28:42;31.90;46.90
5174;DHT22;2606;50.934;6.934;2022-07-29T14:31:09;31.90;47.10
5174;DHT22;2606;50.934;6.934;2022-07-29T14:33:34;31.90;47.20
5174;DHT22;2606;50.934;6.934;2022-07-29T14:36:00;31.80;47.80
5174;DHT22;2606;50.934;6.934;2022-07-29T14:38:26;31.50;48.10
5174;DHT22;2606;50.934;6.934;2022-07-29T14:40:51;31.40;49.10
5174;DHT22;2606;50.934;6.934;2022-07-29T14:43:17;31.30;49.60
5174;DHT22;2606;50.934;6.934;2022-07-29T14:45:43;31.40;49.30
5174;DHT22;2606;50.934;6.934;2022-07-29T14:48:08;31.50;49.20
5174;DHT22;2606;50.934;6.934;2022-07-29T14:50:34;31.60;49.00
5174;DHT22;2606;50.934;6.934;2022-07-29T14:53:00;31.70;48.70
5174;DHT22;2606;50.934;6.934;2022-07-29T14:55:26;31.80;48.40
5174;DHT22;2606;50.934;6.934;2022-07-29T14:57:52;31.80;48.40
5174;DHT22;2606;50.934;6.934;2022-07-29T15:00:18;31.90;48.10
5174;DHT22;2606;50.934;6.934;2022-07-29T15:02:44;32.00;48.10
5174;DHT22;2606;50.934;6.934;2022-07-29T15:05:10;32.30;47.80
5174;DHT22;2606;50.934;6.934;2022-07-29T15:07:35;32.30;47.50
5174;DHT22;2606;50.934;6.934;2022-07-29T15:10:01;32.30;47.10
5174;DHT22;2606;50.934;6.934;2022-07-29T15:12:30;32.20;47.40
5174;DHT22;2606;50.934;6.934;2022-07-29T15:14:55;32.00;47.20
5174;DHT22;2606;50.934;6.934;2022-07-29T15:17:21;31.80;46.90
5174;DHT22;2606;50.934;6.934;2022-07-29T15:19:47;31.80;47.00
5174;DHT22;2606;50.934;6.934;2022-07-29T15:22:12;31.80;47.40
5174;DHT22;2606;50.934;6.934;2022-07-29T15:24:38;31.70;46.60
5174;DHT22;2606;50.934;6.934;2022-07-29T15:27:04;31.50;47.10
5174;DHT22;2606;50.934;6.934;2022-07-29T15:29:30;31.40;46.60
5174;DHT22;2606;50.934;6.934;2022-07-29T15:31:55;31.30;46.70
5174;DHT22;2606;50.934;6.934;2022-07-29T15:34:21;31.10;47.00
5174;DHT22;2606;50.934;6.934;2022-07-29T15:36:49;30.80;46.90
5174;DHT22;2606;50.934;6.934;2022-07-29T15:39:15;30.60;48.30
5174;DHT22;2606;50.934;6.934;2022-07-29T15:41:41;30.40;49.10
5174;DHT22;2606;50.934;6.934;2022-07-29T15:44:07;30.30;49.30
5174;DHT22;2606;50.934;6.934;2022-07-29T15:46:33;30.10;48.50
5174;DHT22;2606;50.934;6.934;2022-07-29T15:49:17;29.90;48.40
5174;DHT22;2606;50.934;6.934;2022-07-29T15:51:42;29.80;49.00
5174;DHT22;2606;50.934;6.934;2022-07-29T15:54:08;29.90;49.60
5174;DHT22;2606;50.934;6.934;2022-07-29T15:56:34;30.20;49.30
5174;DHT22;2606;50.934;6.934;2022-07-29T15:59:00;30.70;48.30
5174;DHT22;2606;50.934;6.934;2022-07-29T16:01:25;30.80;47.30
5174;DHT22;2606;50.934;6.934;2022-07-29T16:03:51;30.80;46.70
5174;DHT22;2606;50.934;6.934;2022-07-29T16:06:17;30.70;46.80
5174;DHT22;2606;50.934;6.934;2022-07-29T16:08:42;30.40;46.70
5174;DHT22;2606;50.934;6.934;2022-07-29T16:11:08;30.40;46.80
5174;DHT22;2606;50.934;6.934;2022-07-29T16:13:34;30.40;47.30
5174;DHT22;2606;50.934;6.934;2022-07-29T16:15:59;30.30;47.10
5174;DHT22;2606;50.934;6.934;2022-07-29T16:18:25;30.30;47.20
5174;DHT22;2606;50.934;6.934;2022-07-29T16:20:50;30.30;47.20
5174;DHT22;2606;50.934;6.934;2022-07-29T16:23:16;30.30;46.80
5174;DHT22;2606;50.934;6.934;2022-07-29T16:25:42;30.30;47.20
5174;DHT22;2606;50.934;6.934;2022-07-29T16:28:08;30.40;46.00
5174;DHT22;2606;50.934;6.934;2022-07-29T16:30:34;30.50;46.40
5174;DHT22;2606;50.934;6.934;2022-07-29T16:33:00;30.70;44.60
5174;DHT22;2606;50.934;6.934;2022-07-29T16:35:26;30.90;43.80
5174;DHT22;2606;50.934;6.934;2022-07-29T16:37:52;31.00;43.50
5174;DHT22;2606;50.934;6.934;2022-07-29T16:40:25;30.90;43.50
5174;DHT22;2606;50.934;6.934;2022-07-29T16:43:20;30.60;43.00